sensor_id;sensor_type;location;lat;lon;timestamp;P1;durP1;ratioP1;P2;durP2;ratioP2
23498;SDS011;11926;48.120;11.562;2022-11-18T00:01:43;2.67;;;0.93;;
23498;SDS011;11926;48.120;11.562;2022-11-18T00:04:30;2.58;;;0.95;;
23498;SDS011;11926;48.120;11.562;2022-11-18T00:07:17;2.25;;;0.77;;
23498;SDS011;11926;48.120;11.562;2022-11-18T00:10:06;1.48;;;0.70;;
23498;SDS011;11926;48.120;11.562;2022-11-18T00:12:53;1.75;;;0.77;;
23498;SDS011;11926;48.120;11.562;2022-11-18T00:15:58;1.95;;;0.70;;
23498;SDS011;11926;48.120;11.562;2022-11-18T00:18:45;2.72;;;0.88;;
23498;SDS011;11926;48.120;11.562;2022-11-18T00:21:31;2.17;;;0.85;;
23498;SDS011;11926;48.120;11.562;2022-11-18T00:24:17;0.85;;;0.60;;
23498;SDS011;11926;48.120;11.562;2022-11-18T00:27:05;3.42;;;0.77;;
23498;SDS011;11926;48.120;11.562;2022-11-18T00:29:53;1.90;;;0.80;;
23498;SDS011;11926;48.120;11.562;2022-11-18T00:32:40;1.85;;;0.77;;
23498;SDS011;11926;48.120;11.562;2022-11-18T00:35:27;1.60;;;0.85;;
23498;SDS011;11926;48.120;11.562;2022-11-18T00:38:14;3.28;;;1.00;;
23498;SDS011;11926;48.120;11.562;2022-11-18T00:41:02;3.85;;;1.10;;
23498;SDS011;11926;48.120;11.562;2022-11-18T00:43:53;4.18;;;1.00;;
23498;SDS011;11926;48.120;11.562;2022-11-18T00:46:39;2.60;;;1.05;;
23498;SDS011;11926;48.120;11.562;2022-11-18T00:49:27;1.35;;;0.80;;
23498;SDS011;11926;48.120;11.562;2022-11-18T00:52:14;3.92;;;0.95;;
23498;SDS011;11926;48.120;11.562;2022-11-18T00:55:02;3.38;;;1.75;;
23498;SDS011;11926;48.120;11.562;2022-11-18T00:57:49;1.48;;;0.90;;
23498;SDS011;11926;48.120;11.562;2022-11-18T01:00:38;2.40;;;0.77;;
23498;SDS011;11926;48.120;11.562;2022-11-18T01:03:26;3.00;;;0.90;;
23498;SDS011;11926;48.120;11.562;2022-11-18T01:06:13;2.60;;;1.25;;
23498;SDS011;11926;48.120;11.562;2022-11-18T01:09:01;1.63;;;0.90;;
23498;SDS011;11926;48.120;11.562;2022-11-18T01:11:48;3.20;;;0.98;;
23498;SDS011;11926;48.120;11.562;2022-11-18T01:14:49;1.60;;;0.80;;
23498;SDS011;11926;48.120;11.562;2022-11-18T01:17:36;2.28;;;1.05;;
23498;SDS011;11926;48.120;11.562;2022-11-18T01:20:22;2.28;;;0.90;;
23498;SDS011;11926;48.120;11.562;2022-11-18T01:23:08;8.77;;;1.20;;
23498;SDS011;11926;48.120;11.562;2022-11-18T01:25:55;2.00;;;0.98;;
23498;SDS011;11926;48.120;11.562;2022-11-18T01:28:42;3.15;;;0.93;;
23498;SDS011;11926;48.120;11.562;2022-11-18T01:31:30;2.72;;;0.93;;
23498;SDS011;11926;48.120;11.562;2022-11-18T01:34:18;2.08;;;0.95;;
23498;SDS011;11926;48.120;11.562;2022-11-18T01:37:05;2.78;;;1.00;;
23498;SDS011;11926;48.120;11.562;2022-11-18T01:39:53;1.40;;;0.88;;
23498;SDS011;11926;48.120;11.562;2022-11-18T01:42:40;3.60;;;0.80;;
23498;SDS011;11926;48.120;11.562;2022-11-18T01:45:28;2.42;;;0.90;;
23498;SDS011;11926;48.120;11.562;2022-11-18T01:48:19;1.42;;;0.70;;
23498;SDS011;11926;48.120;11.562;2022-11-18T01:51:12;1.92;;;0.90;;
23498;SDS011;11926;48.120;11.562;2022-11-18T01:54:03;4.07;;;1.13;;
23498;SDS011;11926;48.120;11.562;2022-11-18T01:56:56;6.30;;;1.30;;
23498;SDS011;11926;48.120;11.562;2022-11-18T01:59:48;3.30;;;1.88;;
23498;SDS011;11926;48.120;11.562;2022-11-18T02:02:38;2.15;;;1.20;;
23498;SDS011;11926;48.120;11.562;2022-11-18T02:05:25;1.65;;;0.95;;
23498;SDS011;11926;48.120;11.562;2022-11-18T02:08:14;2.72;;;0.77;;
23498;SDS011;11926;48.120;11.562;2022-11-18T02:11:05;3.55;;;0.82;;
23498;SDS011;11926;48.120;11.562;2022-11-18T02:14:18;1.70;;;0.70;;
23498;SDS011;11926;48.120;11.562;2022-11-18T02:17:08;1.50;;;0.65;;
23498;SDS011;11926;48.120;11.562;2022-11-18T02:29:25;1.08;;;0.60;;
23498;SDS011;11926;48.120;11.562;2022-11-18T02:32:20;1.15;;;0.70;;
23498;SDS011;11926;48.120;11.562;2022-11-18T02:35:12;2.08;;;0.90;;
23498;SDS011;11926;48.120;11.562;2022-11-18T02:38:06;1.92;;;0.70;;
23498;SDS011;11926;48.120;11.562;2022-11-18T02:40:56;1.20;;;0.50;;
23498;SDS011;11926;48.120;11.562;2022-11-18T02:43:48;1.50;;;0.60;;
23498;SDS011;11926;48.120;11.562;2022-11-18T02:46:41;1.45;;;0.70;;
23498;SDS011;11926;48.120;11.562;2022-11-18T02:49:33;2.05;;;0.68;;
23498;SDS011;11926;48.120;11.562;2022-11-18T02:52:24;1.05;;;0.63;;
23498;SDS011;11926;48.120;11.562;2022-11-18T02:55:13;1.92;;;0.88;;
23498;SDS011;11926;48.120;11.562;2022-11-18T02:58:02;1.70;;;0.70;;
23498;SDS011;11926;48.120;11.562;2022-11-18T03:00:52;1.65;;;0.60;;
23498;SDS011;11926;48.120;11.562;2022-11-18T03:03:41;2.60;;;0.73;;
23498;SDS011;11926;48.120;11.562;2022-11-18T03:06:29;2.10;;;0.70;;
23498;SDS011;11926;48.120;11.562;2022-11-18T03:09:20;3.40;;;0.50;;
23498;SDS011;11926;48.120;11.562;2022-11-18T03:12:14;2.28;;;0.75;;
23498;SDS011;11926;48.120;11.562;2022-11-18T03:15:10;2.83;;;0.70;;
23498;SDS011;11926;48.120;11.562;2022-11-18T03:18:06;1.80;;;0.60;;
23498;SDS011;11926;48.120;11.562;2022-11-18T03:21:05;4.03;;;1.10;;
23498;SDS011;11926;48.120;11.562;2022-11-18T03:23:58;2.17;;;0.60;;
23498;SDS011;11926;48.120;11.562;2022-11-18T03:26:53;1.77;;;0.95;;
23498;SDS011;11926;48.120;11.562;2022-11-18T03:29:47;1.40;;;0.73;;
23498;SDS011;11926;48.120;11.562;2022-11-18T03:32:40;4.32;;;1.17;;
23498;SDS011;11926;48.120;11.562;2022-11-18T03:35:30;0.80;;;0.47;;
23498;SDS011;11926;48.120;11.562;2022-11-18T03:38:23;2.97;;;1.08;;
23498;SDS011;11926;48.120;11.562;2022-11-18T03:44:03;2.80;;;0.88;;
23498;SDS011;11926;48.120;11.562;2022-11-18T03:46:57;2.97;;;0.63;;
23498;SDS011;11926;48.120;11.562;2022-11-18T03:49:48;1.80;;;0.47;;
23498;SDS011;11926;48.120;11.562;2022-11-18T03:52:38;2.40;;;0.90;;
23498;SDS011;11926;48.120;11.562;2022-11-18T03:55:29;3.03;;;0.95;;
23498;SDS011;11926;48.120;11.562;2022-11-18T03:58:22;5.55;;;1.27;;
23498;SDS011;11926;48.120;11.562;2022-11-18T04:01:12;4.63;;;1.30;;
23498;SDS011;11926;48.120;11.562;2022-11-18T04:04:03;3.13;;;0.73;;
23498;SDS011;11926;48.120;11.562;2022-11-18T04:06:52;3.70;;;0.90;;
23498;SDS011;11926;48.120;11.562;2022-11-18T04:09:50;1.33;;;0.50;;
23498;SDS011;11926;48.120;11.562;2022-11-18T04:12:44;1.80;;;0.80;;
23498;SDS011;11926;48.120;11.562;2022-11-18T04:15:35;3.50;;;0.47;;
23498;SDS011;11926;48.120;11.562;2022-11-18T04:18:23;2.30;;;0.40;;
23498;SDS011;11926;48.120;11.562;2022-11-18T04:21:10;0.93;;;0.45;;
23498;SDS011;11926;48.120;11.562;2022-11-18T04:23:57;1.75;;;0.60;;
23498;SDS011;11926;48.120;11.562;2022-11-18T04:26:44;3.10;;;0.77;;
23498;SDS011;11926;48.120;11.562;2022-11-18T04:29:33;0.15;;;0.15;;
23498;SDS011;11926;48.120;11.562;2022-11-18T04:32:20;1.15;;;0.38;;
23498;SDS011;11926;48.120;11.562;2022-11-18T04:35:07;2.25;;;0.40;;
23498;SDS011;11926;48.120;11.562;2022-11-18T04:37:55;1.48;;;0.40;;
23498;SDS011;11926;48.120;11.562;2022-11-18T04:40:42;0.57;;;0.30;;
23498;SDS011;11926;48.120;11.562;2022-11-18T04:43:29;2.05;;;0.40;;
23498;SDS011;11926;48.120;11.562;2022-11-18T04:46:18;0.93;;;0.30;;
23498;SDS011;11926;48.120;11.562;2022-11-18T04:49:05;1.20;;;0.40;;
23498;SDS011;11926;48.120;11.562;2022-11-18T04:51:52;0.70;;;0.40;;
23498;SDS011;11926;48.120;11.562;2022-11-18T04:54:40;1.05;;;0.52;;
23498;SDS011;11926;48.120;11.562;2022-11-18T04:57:27;1.58;;;0.52;;
23498;SDS011;11926;48.120;11.562;2022-11-18T05:00:14;1.50;;;0.30;;
23498;SDS011;11926;48.120;11.562;2022-11-18T05:03:03;0.77;;;0.30;;
23498;SDS011;11926;48.120;11.562;2022-11-18T05:05:51;2.55;;;0.50;;
23498;SDS011;11926;48.120;11.562;2022-11-18T05:08:38;1.23;;;0.55;;
23498;SDS011;11926;48.120;11.562;2022-11-18T05:11:25;0.85;;;0.32;;
23498;SDS011;11926;48.120;11.562;2022-11-18T05:14:27;1.00;;;0.20;;
23498;SDS011;11926;48.120;11.562;2022-11-18T05:17:13;1.33;;;0.50;;
23498;SDS011;11926;48.120;11.562;2022-11-18T05:20:01;1.08;;;0.30;;
23498;SDS011;11926;48.120;11.562;2022-11-18T05:22:47;0.73;;;0.25;;
23498;SDS011;11926;48.120;11.562;2022-11-18T05:25:34;1.80;;;0.40;;
23498;SDS011;11926;48.120;11.562;2022-11-18T05:28:21;1.17;;;0.30;;
23498;SDS011;11926;48.120;11.562;2022-11-18T05:31:09;5.25;;;0.57;;
23498;SDS011;11926;48.120;11.562;2022-11-18T05:33:58;0.90;;;0.30;;
23498;SDS011;11926;48.120;11.562;2022-11-18T05:36:47;0.82;;;0.22;;
23498;SDS011;11926;48.120;11.562;2022-11-18T05:39:34;0.55;;;0.17;;
23498;SDS011;11926;48.120;11.562;2022-11-18T05:42:21;0.40;;;0.22;;
23498;SDS011;11926;48.120;11.562;2022-11-18T05:45:22;0.10;;;0.10;;
23498;SDS011;11926;48.120;11.562;2022-11-18T05:48:08;0.88;;;0.25;;
23498;SDS011;11926;48.120;11.562;2022-11-18T05:50:54;0.22;;;0.20;;
23498;SDS011;11926;48.120;11.562;2022-11-18T05:53:43;1.15;;;0.38;;
23498;SDS011;11926;48.120;11.562;2022-11-18T05:56:32;0.93;;;0.30;;
23498;SDS011;11926;48.120;11.562;2022-11-18T05:59:22;0.22;;;0.20;;
23498;SDS011;11926;48.120;11.562;2022-11-18T06:02:10;1.27;;;0.25;;
23498;SDS011;11926;48.120;11.562;2022-11-18T06:05:01;0.55;;;0.20;;
23498;SDS011;11926;48.120;11.562;2022-11-18T06:07:50;1.70;;;0.20;;
23498;SDS011;11926;48.120;11.562;2022-11-18T06:10:42;0.85;;;0.30;;
23498;SDS011;11926;48.120;11.562;2022-11-18T06:13:32;0.45;;;0.28;;
23498;SDS011;11926;48.120;11.562;2022-11-18T06:16:23;2.03;;;0.30;;
23498;SDS011;11926;48.120;11.562;2022-11-18T06:19:14;0.47;;;0.40;;
23498;SDS011;11926;48.120;11.562;2022-11-18T06:22:03;1.42;;;0.40;;
23498;SDS011;11926;48.120;11.562;2022-11-18T06:24:52;0.25;;;0.20;;
23498;SDS011;11926;48.120;11.562;2022-11-18T06:27:40;2.15;;;0.50;;
23498;SDS011;11926;48.120;11.562;2022-11-18T06:30:29;1.65;;;0.65;;
23498;SDS011;11926;48.120;11.562;2022-11-18T06:33:16;0.88;;;0.35;;
23498;SDS011;11926;48.120;11.562;2022-11-18T06:36:03;1.70;;;0.45;;
23498;SDS011;11926;48.120;11.562;2022-11-18T06:38:50;0.95;;;0.40;;
23498;SDS011;11926;48.120;11.562;2022-11-18T06:41:37;0.68;;;0.30;;
23498;SDS011;11926;48.120;11.562;2022-11-18T06:44:26;2.95;;;0.55;;
23498;SDS011;11926;48.120;11.562;2022-11-18T06:47:13;1.98;;;0.73;;
23498;SDS011;11926;48.120;11.562;2022-11-18T06:50:00;1.17;;;0.50;;
23498;SDS011;11926;48.120;11.562;2022-11-18T06:52:47;1.25;;;0.45;;
23498;SDS011;11926;48.120;11.562;2022-11-18T06:55:35;1.13;;;0.50;;
23498;SDS011;11926;48.120;11.562;2022-11-18T06:58:22;1.35;;;0.60;;
23498;SDS011;11926;48.120;11.562;2022-11-18T07:01:11;0.85;;;0.50;;
23498;SDS011;11926;48.120;11.562;2022-11-18T07:03:59;2.42;;;0.50;;
23498;SDS011;11926;48.120;11.562;2022-11-18T07:06:47;0.57;;;0.30;;
23498;SDS011;11926;48.120;11.562;2022-11-18T07:09:35;0.82;;;0.30;;
23498;SDS011;11926;48.120;11.562;2022-11-18T07:12:23;1.17;;;0.50;;
23498;SDS011;11926;48.120;11.562;2022-11-18T07:15:10;1.30;;;0.50;;
23498;SDS011;11926;48.120;11.562;2022-11-18T07:17:59;3.35;;;0.77;;
23498;SDS011;11926;48.120;11.562;2022-11-18T07:20:48;0.80;;;0.40;;
23498;SDS011;11926;48.120;11.562;2022-11-18T07:23:36;1.88;;;0.50;;
23498;SDS011;11926;48.120;11.562;2022-11-18T07:26:24;1.30;;;0.47;;
23498;SDS011;11926;48.120;11.562;2022-11-18T07:29:12;4.88;;;0.82;;
23498;SDS011;11926;48.120;11.562;2022-11-18T07:32:00;0.65;;;0.22;;
23498;SDS011;11926;48.120;11.562;2022-11-18T07:34:54;1.40;;;0.70;;
23498;SDS011;11926;48.120;11.562;2022-11-18T07:37:46;1.15;;;0.45;;
23498;SDS011;11926;48.120;11.562;2022-11-18T07:40:34;1.10;;;0.25;;
23498;SDS011;11926;48.120;11.562;2022-11-18T07:43:21;1.85;;;0.63;;
23498;SDS011;11926;48.120;11.562;2022-11-18T07:46:09;3.70;;;0.82;;
23498;SDS011;11926;48.120;11.562;2022-11-18T07:48:57;0.95;;;0.50;;
23498;SDS011;11926;48.120;11.562;2022-11-18T07:51:47;1.27;;;0.50;;
23498;SDS011;11926;48.120;11.562;2022-11-18T07:54:35;1.58;;;0.60;;
23498;SDS011;11926;48.120;11.562;2022-11-18T07:57:22;1.45;;;0.65;;
23498;SDS011;11926;48.120;11.562;2022-11-18T08:00:09;0.85;;;0.40;;
23498;SDS011;11926;48.120;11.562;2022-11-18T08:02:57;2.05;;;0.70;;
23498;SDS011;11926;48.120;11.562;2022-11-18T08:05:45;3.60;;;0.50;;
23498;SDS011;11926;48.120;11.562;2022-11-18T08:08:33;1.00;;;0.50;;
23498;SDS011;11926;48.120;11.562;2022-11-18T08:11:21;2.97;;;0.85;;
23498;SDS011;11926;48.120;11.562;2022-11-18T08:14:08;1.38;;;0.60;;
23498;SDS011;11926;48.120;11.562;2022-11-18T08:16:55;1.65;;;0.95;;
23498;SDS011;11926;48.120;11.562;2022-11-18T08:19:43;1.00;;;0.38;;
23498;SDS011;11926;48.120;11.562;2022-11-18T08:22:30;0.80;;;0.52;;
23498;SDS011;11926;48.120;11.562;2022-11-18T08:25:19;0.40;;;0.30;;
23498;SDS011;11926;48.120;11.562;2022-11-18T08:28:06;2.63;;;0.30;;
23498;SDS011;11926;48.120;11.562;2022-11-18T08:30:54;1.13;;;0.40;;
23498;SDS011;11926;48.120;11.562;2022-11-18T08:33:41;1.17;;;0.60;;
23498;SDS011;11926;48.120;11.562;2022-11-18T08:36:30;0.70;;;0.40;;
23498;SDS011;11926;48.120;11.562;2022-11-18T08:39:18;0.80;;;0.50;;
23498;SDS011;11926;48.120;11.562;2022-11-18T08:42:07;0.73;;;0.40;;
23498;SDS011;11926;48.120;11.562;2022-11-18T08:44:55;1.70;;;0.60;;
23498;SDS011;11926;48.120;11.562;2022-11-18T08:47:42;1.17;;;0.68;;
23498;SDS011;11926;48.120;11.562;2022-11-18T08:50:30;2.58;;;0.63;;
23498;SDS011;11926;48.120;11.562;2022-11-18T08:53:17;1.20;;;0.70;;
23498;SDS011;11926;48.120;11.562;2022-11-18T08:56:05;2.63;;;0.77;;
23498;SDS011;11926;48.120;11.562;2022-11-18T08:58:54;2.80;;;2.10;;
23498;SDS011;11926;48.120;11.562;2022-11-18T09:01:43;1.05;;;0.77;;
23498;SDS011;11926;48.120;11.562;2022-11-18T09:04:31;1.58;;;0.75;;
23498;SDS011;11926;48.120;11.562;2022-11-18T09:07:19;0.88;;;0.60;;
23498;SDS011;11926;48.120;11.562;2022-11-18T09:10:08;1.58;;;0.80;;
23498;SDS011;11926;48.120;11.562;2022-11-18T09:12:55;2.60;;;0.63;;
23498;SDS011;11926;48.120;11.562;2022-11-18T09:16:04;1.17;;;0.70;;
23498;SDS011;11926;48.120;11.562;2022-11-18T09:18:53;1.40;;;0.73;;
23498;SDS011;11926;48.120;11.562;2022-11-18T09:21:41;1.35;;;0.73;;
23498;SDS011;11926;48.120;11.562;2022-11-18T09:24:28;2.00;;;0.80;;
23498;SDS011;11926;48.120;11.562;2022-11-18T09:27:16;0.88;;;0.75;;
23498;SDS011;11926;48.120;11.562;2022-11-18T09:30:04;2.08;;;1.00;;
23498;SDS011;11926;48.120;11.562;2022-11-18T09:32:53;2.15;;;1.00;;
23498;SDS011;11926;48.120;11.562;2022-11-18T09:35:40;2.05;;;0.90;;
23498;SDS011;11926;48.120;11.562;2022-11-18T09:38:28;1.70;;;0.77;;
23498;SDS011;11926;48.120;11.562;2022-11-18T09:41:21;2.67;;;1.05;;
23498;SDS011;11926;48.120;11.562;2022-11-18T09:44:27;3.45;;;1.10;;
23498;SDS011;11926;48.120;11.562;2022-11-18T09:47:26;1.85;;;1.00;;
23498;SDS011;11926;48.120;11.562;2022-11-18T09:50:17;1.67;;;0.85;;
23498;SDS011;11926;48.120;11.562;2022-11-18T09:53:27;2.90;;;0.85;;
23498;SDS011;11926;48.120;11.562;2022-11-18T09:56:15;1.25;;;0.40;;
23498;SDS011;11926;48.120;11.562;2022-11-18T09:59:03;1.38;;;0.50;;
23498;SDS011;11926;48.120;11.562;2022-11-18T10:01:51;1.10;;;0.50;;
23498;SDS011;11926;48.120;11.562;2022-11-18T10:04:42;0.85;;;0.50;;
23498;SDS011;11926;48.120;11.562;2022-11-18T10:07:34;2.30;;;0.60;;
23498;SDS011;11926;48.120;11.562;2022-11-18T10:10:28;2.65;;;0.45;;
23498;SDS011;11926;48.120;11.562;2022-11-18T10:13:31;3.15;;;0.52;;
23498;SDS011;11926;48.120;11.562;2022-11-18T10:16:34;0.63;;;0.30;;
23498;SDS011;11926;48.120;11.562;2022-11-18T10:19:30;1.92;;;0.45;;
23498;SDS011;11926;48.120;11.562;2022-11-18T10:22:24;2.25;;;0.50;;
23498;SDS011;11926;48.120;11.562;2022-11-18T10:25:16;0.63;;;0.30;;
23498;SDS011;11926;48.120;11.562;2022-11-18T10:28:13;0.80;;;0.40;;
23498;SDS011;11926;48.120;11.562;2022-11-18T10:31:04;1.13;;;0.45;;
23498;SDS011;11926;48.120;11.562;2022-11-18T10:33:57;0.70;;;0.55;;
23498;SDS011;11926;48.120;11.562;2022-11-18T10:36:45;1.05;;;0.50;;
23498;SDS011;11926;48.120;11.562;2022-11-18T10:39:48;1.42;;;0.70;;
23498;SDS011;11926;48.120;11.562;2022-11-18T10:42:39;3.78;;;0.73;;
23498;SDS011;11926;48.120;11.562;2022-11-18T10:45:30;2.70;;;0.50;;
23498;SDS011;11926;48.120;11.562;2022-11-18T10:48:18;1.52;;;0.70;;
23498;SDS011;11926;48.120;11.562;2022-11-18T10:51:18;1.00;;;0.43;;
23498;SDS011;11926;48.120;11.562;2022-11-18T10:54:08;2.22;;;0.60;;
23498;SDS011;11926;48.120;11.562;2022-11-18T10:57:02;2.72;;;0.80;;
23498;SDS011;11926;48.120;11.562;2022-11-18T10:59:54;2.53;;;0.90;;
23498;SDS011;11926;48.120;11.562;2022-11-18T11:02:42;2.90;;;0.70;;
23498;SDS011;11926;48.120;11.562;2022-11-18T11:05:30;2.15;;;0.68;;
23498;SDS011;11926;48.120;11.562;2022-11-18T11:08:18;1.35;;;0.80;;
23498;SDS011;11926;48.120;11.562;2022-11-18T11:11:23;1.75;;;0.80;;
23498;SDS011;11926;48.120;11.562;2022-11-18T11:14:14;2.25;;;0.70;;
23498;SDS011;11926;48.120;11.562;2022-11-18T11:17:09;2.17;;;0.80;;
23498;SDS011;11926;48.120;11.562;2022-11-18T11:20:02;8.90;;;1.00;;
23498;SDS011;11926;48.120;11.562;2022-11-18T11:22:52;1.98;;;1.20;;
23498;SDS011;11926;48.120;11.562;2022-11-18T11:25:40;2.15;;;0.90;;
23498;SDS011;11926;48.120;11.562;2022-11-18T11:28:52;1.80;;;1.00;;
23498;SDS011;11926;48.120;11.562;2022-11-18T11:31:47;2.42;;;0.80;;
23498;SDS011;11926;48.120;11.562;2022-11-18T11:34:45;4.15;;;1.10;;
23498;SDS011;11926;48.120;11.562;2022-11-18T11:37:40;1.38;;;0.90;;
23498;SDS011;11926;48.120;11.562;2022-11-18T11:40:38;3.20;;;0.93;;
23498;SDS011;11926;48.120;11.562;2022-11-18T11:43:33;3.72;;;1.80;;
23498;SDS011;11926;48.120;11.562;2022-11-18T11:46:30;2.30;;;1.00;;
23498;SDS011;11926;48.120;11.562;2022-11-18T11:49:25;4.40;;;1.20;;
23498;SDS011;11926;48.120;11.562;2022-11-18T11:52:26;1.33;;;0.80;;
23498;SDS011;11926;48.120;11.562;2022-11-18T11:55:21;2.88;;;0.90;;
23498;SDS011;11926;48.120;11.562;2022-11-18T11:58:18;2.90;;;0.80;;
23498;SDS011;11926;48.120;11.562;2022-11-18T12:01:18;1.15;;;0.77;;
23498;SDS011;11926;48.120;11.562;2022-11-18T12:04:15;3.28;;;1.00;;
23498;SDS011;11926;48.120;11.562;2022-11-18T12:07:18;2.17;;;0.52;;
23498;SDS011;11926;48.120;11.562;2022-11-18T12:10:14;2.35;;;1.00;;
23498;SDS011;11926;48.120;11.562;2022-11-18T12:13:13;1.55;;;0.70;;
23498;SDS011;11926;48.120;11.562;2022-11-18T12:16:17;1.25;;;0.60;;
23498;SDS011;11926;48.120;11.562;2022-11-18T12:19:10;1.83;;;0.60;;
23498;SDS011;11926;48.120;11.562;2022-11-18T12:22:01;1.75;;;0.80;;
23498;SDS011;11926;48.120;11.562;2022-11-18T12:24:50;1.15;;;0.57;;
23498;SDS011;11926;48.120;11.562;2022-11-18T12:30:44;0.85;;;0.40;;
23498;SDS011;11926;48.120;11.562;2022-11-18T12:33:31;1.13;;;0.40;;
23498;SDS011;11926;48.120;11.562;2022-11-18T12:36:23;1.08;;;0.40;;
23498;SDS011;11926;48.120;11.562;2022-11-18T12:54:26;1.58;;;0.65;;
23498;SDS011;11926;48.120;11.562;2022-11-18T12:57:17;1.40;;;0.73;;
23498;SDS011;11926;48.120;11.562;2022-11-18T13:00:15;1.40;;;0.65;;
23498;SDS011;11926;48.120;11.562;2022-11-18T13:03:04;1.10;;;0.65;;
23498;SDS011;11926;48.120;11.562;2022-11-18T13:05:58;1.50;;;0.60;;
23498;SDS011;11926;48.120;11.562;2022-11-18T13:08:49;1.60;;;0.63;;
23498;SDS011;11926;48.120;11.562;2022-11-18T13:11:40;1.38;;;0.63;;
23498;SDS011;11926;48.120;11.562;2022-11-18T13:14:32;2.75;;;1.00;;
23498;SDS011;11926;48.120;11.562;2022-11-18T13:17:35;2.83;;;1.42;;
23498;SDS011;11926;48.120;11.562;2022-11-18T13:20:38;3.67;;;1.48;;
23498;SDS011;11926;48.120;11.562;2022-11-18T13:26:44;1.75;;;0.90;;
23498;SDS011;11926;48.120;11.562;2022-11-18T13:29:35;1.77;;;0.60;;
23498;SDS011;11926;48.120;11.562;2022-11-18T13:32:40;3.10;;;0.95;;
23498;SDS011;11926;48.120;11.562;2022-11-18T13:35:30;1.33;;;0.70;;
23498;SDS011;11926;48.120;11.562;2022-11-18T13:38:18;2.35;;;0.68;;
23498;SDS011;11926;48.120;11.562;2022-11-18T13:41:18;1.00;;;0.60;;
23498;SDS011;11926;48.120;11.562;2022-11-18T13:44:09;1.27;;;0.70;;
23498;SDS011;11926;48.120;11.562;2022-11-18T13:47:00;1.75;;;0.90;;
23498;SDS011;11926;48.120;11.562;2022-11-18T13:49:54;2.38;;;1.13;;
23498;SDS011;11926;48.120;11.562;2022-11-18T13:52:49;1.73;;;1.02;;
23498;SDS011;11926;48.120;11.562;2022-11-18T13:55:46;3.05;;;1.55;;
23498;SDS011;11926;48.120;11.562;2022-11-18T13:58:38;2.70;;;1.45;;
23498;SDS011;11926;48.120;11.562;2022-11-18T14:01:51;2.88;;;1.35;;
23498;SDS011;11926;48.120;11.562;2022-11-18T14:07:34;4.37;;;1.40;;
23498;SDS011;11926;48.120;11.562;2022-11-18T14:10:28;2.65;;;1.25;;
23498;SDS011;11926;48.120;11.562;2022-11-18T14:13:24;2.60;;;1.50;;
23498;SDS011;11926;48.120;11.562;2022-11-18T14:16:28;5.05;;;1.70;;
23498;SDS011;11926;48.120;11.562;2022-11-18T14:19:25;3.33;;;1.80;;
23498;SDS011;11926;48.120;11.562;2022-11-18T14:22:17;3.58;;;1.45;;
23498;SDS011;11926;48.120;11.562;2022-11-18T14:25:14;3.63;;;1.83;;
23498;SDS011;11926;48.120;11.562;2022-11-18T14:28:16;6.25;;;1.92;;
23498;SDS011;11926;48.120;11.562;2022-11-18T14:34:17;3.00;;;1.73;;
23498;SDS011;11926;48.120;11.562;2022-11-18T14:37:08;2.75;;;1.88;;
23498;SDS011;11926;48.120;11.562;2022-11-18T14:39:57;3.50;;;1.80;;
23498;SDS011;11926;48.120;11.562;2022-11-18T14:42:44;3.45;;;1.90;;
23498;SDS011;11926;48.120;11.562;2022-11-18T14:45:32;3.20;;;2.28;;
23498;SDS011;11926;48.120;11.562;2022-11-18T14:48:19;2.70;;;1.60;;
23498;SDS011;11926;48.120;11.562;2022-11-18T14:51:18;3.72;;;1.83;;
23498;SDS011;11926;48.120;11.562;2022-11-18T14:54:05;3.13;;;1.60;;
23498;SDS011;11926;48.120;11.562;2022-11-18T14:56:52;3.35;;;1.80;;
23498;SDS011;11926;48.120;11.562;2022-11-18T14:59:42;3.70;;;2.42;;
23498;SDS011;11926;48.120;11.562;2022-11-18T15:02:30;5.32;;;1.67;;
23498;SDS011;11926;48.120;11.562;2022-11-18T15:05:17;3.25;;;1.40;;
23498;SDS011;11926;48.120;11.562;2022-11-18T15:08:06;3.40;;;1.02;;
23498;SDS011;11926;48.120;11.562;2022-11-18T15:10:53;1.65;;;0.90;;
23498;SDS011;11926;48.120;11.562;2022-11-18T15:13:41;2.40;;;1.00;;
23498;SDS011;11926;48.120;11.562;2022-11-18T15:16:29;2.03;;;0.93;;
23498;SDS011;11926;48.120;11.562;2022-11-18T15:19:17;2.22;;;1.00;;
23498;SDS011;11926;48.120;11.562;2022-11-18T15:22:04;1.70;;;0.88;;
23498;SDS011;11926;48.120;11.562;2022-11-18T15:24:53;2.22;;;0.85;;
23498;SDS011;11926;48.120;11.562;2022-11-18T15:27:40;2.67;;;1.02;;
23498;SDS011;11926;48.120;11.562;2022-11-18T15:30:27;1.95;;;0.95;;
23498;SDS011;11926;48.120;11.562;2022-11-18T15:33:14;2.15;;;0.90;;
23498;SDS011;11926;48.120;11.562;2022-11-18T15:36:01;3.55;;;1.00;;
23498;SDS011;11926;48.120;11.562;2022-11-18T15:38:49;3.85;;;0.80;;
23498;SDS011;11926;48.120;11.562;2022-11-18T15:41:39;1.77;;;0.90;;
23498;SDS011;11926;48.120;11.562;2022-11-18T15:44:28;1.95;;;0.90;;
23498;SDS011;11926;48.120;11.562;2022-11-18T15:47:15;1.60;;;0.90;;
23498;SDS011;11926;48.120;11.562;2022-11-18T15:50:02;2.30;;;1.13;;
23498;SDS011;11926;48.120;11.562;2022-11-18T15:52:49;2.50;;;1.15;;
23498;SDS011;11926;48.120;11.562;2022-11-18T15:55:38;3.75;;;1.40;;
23498;SDS011;11926;48.120;11.562;2022-11-18T15:58:27;4.85;;;1.40;;
23498;SDS011;11926;48.120;11.562;2022-11-18T16:01:20;3.15;;;1.50;;
23498;SDS011;11926;48.120;11.562;2022-11-18T16:04:09;3.20;;;1.23;;
23498;SDS011;11926;48.120;11.562;2022-11-18T16:06:58;2.17;;;1.27;;
23498;SDS011;11926;48.120;11.562;2022-11-18T16:09:47;1.83;;;1.00;;
23498;SDS011;11926;48.120;11.562;2022-11-18T16:12:48;1.75;;;1.10;;
23498;SDS011;11926;48.120;11.562;2022-11-18T16:15:35;8.10;;;3.65;;
23498;SDS011;11926;48.120;11.562;2022-11-18T16:18:28;3.58;;;2.20;;
23498;SDS011;11926;48.120;11.562;2022-11-18T16:21:13;3.13;;;1.90;;
23498;SDS011;11926;48.120;11.562;2022-11-18T16:24:02;4.95;;;2.63;;
23498;SDS011;11926;48.120;11.562;2022-11-18T16:26:50;4.30;;;2.58;;
23498;SDS011;11926;48.120;11.562;2022-11-18T16:29:38;7.07;;;4.55;;
23498;SDS011;11926;48.120;11.562;2022-11-18T16:32:27;11.07;;;7.10;;
23498;SDS011;11926;48.120;11.562;2022-11-18T16:35:14;7.22;;;3.60;;
23498;SDS011;11926;48.120;11.562;2022-11-18T16:38:01;8.23;;;5.25;;
23498;SDS011;11926;48.120;11.562;2022-11-18T16:40:53;9.13;;;4.30;;
23498;SDS011;11926;48.120;11.562;2022-11-18T16:43:42;6.38;;;2.10;;
23498;SDS011;11926;48.120;11.562;2022-11-18T16:46:30;4.10;;;2.58;;
23498;SDS011;11926;48.120;11.562;2022-11-18T16:49:20;6.07;;;3.30;;
23498;SDS011;11926;48.120;11.562;2022-11-18T16:52:08;8.63;;;3.15;;
23498;SDS011;11926;48.120;11.562;2022-11-18T16:54:55;6.18;;;3.45;;
23498;SDS011;11926;48.120;11.562;2022-11-18T16:57:43;6.97;;;2.80;;
23498;SDS011;11926;48.120;11.562;2022-11-18T17:00:30;5.57;;;2.30;;
23498;SDS011;11926;48.120;11.562;2022-11-18T17:03:37;5.78;;;2.88;;
23498;SDS011;11926;48.120;11.562;2022-11-18T17:06:27;4.55;;;1.90;;
23498;SDS011;11926;48.120;11.562;2022-11-18T17:09:16;5.75;;;2.80;;
23498;SDS011;11926;48.120;11.562;2022-11-18T17:12:06;5.00;;;2.72;;
23498;SDS011;11926;48.120;11.562;2022-11-18T17:14:53;5.93;;;3.33;;
23498;SDS011;11926;48.120;11.562;2022-11-18T17:17:40;4.55;;;2.92;;
23498;SDS011;11926;48.120;11.562;2022-11-18T17:20:28;5.30;;;2.17;;
23498;SDS011;11926;48.120;11.562;2022-11-18T17:23:17;4.07;;;2.22;;
23498;SDS011;11926;48.120;11.562;2022-11-18T17:26:04;3.70;;;2.15;;
23498;SDS011;11926;48.120;11.562;2022-11-18T17:28:53;5.35;;;2.03;;
23498;SDS011;11926;48.120;11.562;2022-11-18T17:31:41;3.83;;;1.98;;